Latest Weather Observations for Moss Vale

IDN60801

Issued at 8:05 pm EDT Monday 24 November 2014 (issued every 30 minutes, with the page automatically refreshed every 10 minutes)

About weather observations | Map of weather stations | Latest weather observations for NSW | Other Formats
Station Details ID: 068239 Name: MOSS VALE AWS Lat: -34.53 Lon: 150.42 Height: 678.4 m
Data from the previous 72 hours. | See also: Recent months at Moss Vale
Date/Time
EDT
Temp
°C
App
Temp
°C
Dew
Point
Rel
Hum
%
Delta-T
°C
Wind Press
QNH
hPa
Press
MSL
hPa
Rain
since 9 am
mm
Dir
 
Spd
km/h
Gust
km/h
Spd
kts
Gust
kts
24/08:00pm 20.6 22.4 18.7 89 1.2 NE 7 9 4 5 1011.3 1009.3 -
24/07:30pm 20.9 22.8 18.5 86 1.5 E 6 7 3 4 1011.1 1009.0 -
24/07:00pm 21.3 22.8 18.9 86 1.6 NE 9 11 5 6 1010.6 1008.5 -
24/06:30pm 21.6 23.4 18.2 81 2.2 ENE 6 7 3 4 1010.6 1008.5 -
24/06:00pm 21.9 24.0 19.3 85 1.7 S 7 11 4 6 1010.1 1008.0 -
24/05:35pm 21.6 23.0 18.6 83 1.9 S 9 15 5 8 1010.6 1008.5 -
24/05:30pm 21.8 23.7 19.7 88 1.4 SSE 9 11 5 6 1010.7 1008.6 -
24/05:09pm 21.5 23.3 18.7 84 1.8 S 7 13 4 7 1011.3 1009.3 -
24/05:00pm 21.4 22.7 18.4 83 1.9 SSE 9 13 5 7 1010.9 1008.8 -
24/04:30pm 21.4 22.1 18.8 85 1.7 E 13 17 7 9 1011.7 1009.6 -
24/04:00pm 20.9 22.3 18.7 87 1.4 ESE 9 13 5 7 1012.5 1010.5 -
24/03:30pm 21.4 22.8 18.6 84 1.8 WNW 9 19 5 10 1012.3 1010.2 -
24/03:23pm 21.6 23.4 18.8 84 1.8 NNE 7 11 4 6 1012.0 1009.9 -
24/03:00pm 22.6 20.5 16.2 67 4.0 NW 22 28 12 15 1012.2 1010.1 -
24/02:30pm 27.2 24.9 14.6 46 7.8 NE 20 30 11 16 1011.0 1008.9 -
24/01:30pm 27.3 23.4 13.3 42 8.5 NNE 26 32 14 17 1012.3 1010.2 0.0
24/01:00pm 26.6 23.9 14.7 48 7.4 NNE 22 28 12 15 1013.3 1011.2 0.0
24/12:30pm 25.8 24.4 14.6 50 6.9 ENE 15 19 8 10 1013.9 1011.9 0.0
24/12:00pm 24.5 24.4 16.0 59 5.3 N 11 17 6 9 1015.0 1012.9 0.0
24/11:30am 24.2 23.9 16.5 62 4.9 NNE 13 17 7 9 1015.2 1013.2 0.0
24/11:00am 23.7 22.7 16.7 65 4.4 NE 17 20 9 11 1015.7 1013.7 0.0
24/10:30am 22.5 21.3 17.4 73 3.2 NNE 20 24 11 13 1016.0 1014.0 0.0
24/10:00am 21.9 21.2 17.3 75 2.9 NNE 17 24 9 13 1016.6 1014.6 0.0
24/09:30am 20.9 19.6 17.3 80 2.3 NNE 20 26 11 14 1016.7 1014.7 0.0
24/09:00am 19.7 18.5 17.1 85 1.6 NE 19 24 10 13 1016.9 1014.9 0.0
24/08:30am 20.4 17.8 16.0 76 2.7 NNE 24 33 13 18 1016.8 1014.8 0.0
24/08:00am 21.8 20.1 14.7 64 4.3 NNE 17 20 9 11 1016.3 1014.2 0.0
24/07:30am 20.6 21.5 15.2 71 3.3 E 4 11 2 6 1015.8 1013.8 0.0
24/07:00am 20.3 21.3 14.2 68 3.6 NE 2 7 1 4 1015.5 1013.5 0.0
24/06:30am 21.6 22.4 12.5 56 5.3 CALM 0 0 0 0 1015.2 1013.2 0.0
24/06:00am 21.7 20.4 12.5 56 5.4 WSW 11 15 6 8 1015.3 1013.3 0.0
24/05:30am 21.8 19.4 12.6 56 5.4 W 17 22 9 12 1015.8 1013.8 0.0
24/05:00am 22.1 19.2 12.9 56 5.4 W 20 28 11 15 1015.9 1013.9 0.0
24/04:30am 21.4 19.3 14.6 65 4.1 W 19 26 10 14 1015.8 1013.8 0.0
24/04:00am 20.0 19.5 16.0 78 2.5 W 13 19 7 10 1016.3 1014.2 0.0
24/03:30am 19.3 20.6 15.2 77 2.5 S 2 9 1 5 1015.4 1013.4 0.0
24/03:00am 20.6 21.7 15.6 73 3.1 N 4 6 2 3 1015.5 1013.5 0.0
24/02:30am 20.5 21.0 15.5 73 3.1 SSW 7 9 4 5 1015.5 1013.5 0.0
24/02:00am 21.4 21.5 15.5 69 3.6 WSW 9 13 5 7 1015.9 1013.9 0.0
24/01:30am 21.9 22.0 15.5 67 3.9 W 9 9 5 5 1016.5 1014.5 0.0
24/01:00am 21.8 20.1 16.3 71 3.4 N 20 30 11 16 1017.0 1015.0 0.0
24/12:30am 18.9 19.7 16.3 85 1.6 SSE 7 9 4 5 1017.4 1015.4 0.0
24/12:00am 21.4 22.2 16.4 73 3.1 NE 7 11 4 6 1017.4 1015.4 0.0
 
Date/Time
EDT
Temp
°C
App
Temp
°C
Dew
Point
Rel
Hum
%
Delta-T
°C
Wind Press
QNH
hPa
Press
MSL
hPa
Rain
since 9 am
mm
Dir
 
Spd
km/h
Gust
km/h
Spd
kts
Gust
kts
23/11:30pm 22.6 22.9 15.9 66 4.2 ESE 9 11 5 6 1016.5 1014.5 0.0
23/11:00pm 23.2 21.3 15.8 63 4.6 NE 20 24 11 13 1015.9 1013.9 0.0
23/10:30pm 22.7 20.8 15.8 65 4.3 NE 20 28 11 15 1015.5 1013.5 0.0
23/10:00pm 21.5 21.5 17.3 77 2.7 NNE 13 19 7 10 1015.2 1013.2 0.0
23/09:30pm 20.7 21.0 16.9 79 2.4 NE 11 13 6 7 1014.8 1012.7 0.0
23/09:00pm 22.7 23.7 16.3 67 4.0 SW 6 11 3 6 1015.4 1013.4 0.0
23/08:30pm 21.0 19.6 18.0 83 1.9 S 22 26 12 14 1015.3 1013.3 0.0
23/08:00pm 21.4 21.4 18.0 81 2.2 SSW 15 19 8 10 1016.8 1014.8 0.0
23/07:30pm 21.6 22.8 18.2 81 2.2 WNW 9 17 5 9 1016.5 1014.5 0.0
23/07:00pm 22.3 21.9 18.1 77 2.7 SSW 17 30 9 16 1014.6 1012.6 0.0
23/06:30pm 23.0 24.3 17.5 71 3.5 ENE 7 11 4 6 1013.4 1011.3 0.0
23/06:00pm 23.8 22.7 17.3 67 4.1 SE 19 24 10 13 1013.4 1011.3 0.0
23/05:44pm 24.0 21.1 17.0 65 4.4 S 28 46 15 25 1012.8 1010.8 0.0
23/05:30pm 24.6 20.8 15.8 58 5.5 SSE 30 43 16 23 1012.9 1010.9 0.0
23/05:00pm 28.2 25.7 16.1 47 7.7 SE 24 33 13 18 1011.7 1009.6 0.0
23/04:30pm 29.3 27.1 16.8 47 8.0 ESE 24 30 13 16 1011.6 1009.5 0.0
23/04:07pm 31.2 27.1 13.9 35 10.7 SE 28 33 15 18 1011.7 1009.6 0.0
23/04:00pm 36.6 30.7 3.7 13 17.9 SW 24 32 13 17 1011.6 1009.5 0.0
23/03:30pm 37.0 30.0 7.0 16 17.2 W 33 50 18 27 1011.6 1009.5 0.0
23/03:21pm 37.2 30.4 5.3 14 17.8 W 30 50 16 27 1011.6 1009.5 0.0
23/03:00pm 37.4 30.7 7.3 16 17.4 W 32 46 17 25 1011.9 1009.8 0.0
23/02:30pm 37.5 30.8 8.3 17 17.1 W 33 52 18 28 1012.3 1010.2 0.0
23/02:00pm 36.7 31.0 8.5 18 16.5 WNW 28 46 15 25 1012.5 1010.5 0.0
23/01:30pm 36.5 30.4 8.4 18 16.4 W 30 48 16 26 1012.6 1010.6 0.0
23/01:00pm 36.8 30.8 8.6 18 16.6 W 30 50 16 27 1013.0 1011.0 0.0
23/12:33pm 36.0 29.8 6.2 16 16.8 WNW 28 46 15 25 1013.2 1011.1 0.0
23/12:30pm 36.1 30.3 6.3 16 16.8 WNW 26 46 14 25 1013.2 1011.1 0.0
23/12:02pm 35.4 29.5 7.5 18 16.0 NW 28 46 15 25 1013.5 1011.4 0.0
23/12:00pm 35.4 30.2 9.0 20 15.5 NW 26 46 14 25 1013.5 1011.4 0.0
23/11:30am 34.9 29.9 7.9 19 15.5 NW 24 39 13 21 1013.9 1011.9 0.0
23/11:00am 34.4 30.7 10.3 23 14.4 N 20 28 11 15 1014.3 1012.3 0.0
23/10:30am 33.5 29.9 8.2 21 14.5 N 17 26 9 14 1014.4 1012.4 0.0
23/10:00am 31.9 28.2 9.4 25 13.1 WNW 19 24 10 13 1014.6 1012.6 0.0
23/09:30am 31.1 29.6 10.4 28 12.2 W 9 15 5 8 1014.9 1012.8 0.0
23/09:00am 28.5 28.5 13.6 40 9.1 W 6 9 3 5 1015.0 1012.9 0.0
23/08:30am 25.0 26.8 16.4 59 5.4 NNW 2 6 1 3 1014.9 1012.8 0.0
23/08:00am 21.7 24.1 17.1 75 2.9 CALM 0 0 0 0 1014.8 1012.7 0.0
23/07:30am 18.4 20.6 16.6 89 1.1 CALM 0 4 0 2 1014.4 1012.4 0.0
23/07:00am 16.9 18.4 15.8 93 0.7 W 2 7 1 4 1014.3 1012.3 0.0
23/06:30am 16.1 17.7 15.0 93 0.7 CALM 0 0 0 0 1014.1 1012.1 0.0
23/06:00am 15.5 15.9 14.7 95 0.5 WNW 6 7 3 4 1014.0 1012.0 0.0
23/05:30am 14.8 16.0 13.8 94 0.6 CALM 0 0 0 0 1013.8 1011.8 0.0
23/05:00am 15.1 16.5 14.3 95 0.5 CALM 0 0 0 0 1013.6 1011.5 0.0
23/04:30am 15.1 16.5 14.3 95 0.5 CALM 0 0 0 0 1013.6 1011.5 0.0
23/04:00am 14.9 16.2 14.1 95 0.5 CALM 0 0 0 0 1013.5 1011.4 0.0
23/03:40am 14.9 16.2 14.1 95 0.5 CALM 0 0 0 0 1013.7 1011.6 0.0
23/03:30am 14.8 16.1 14.0 95 0.5 CALM 0 0 0 0 1013.6 1011.5 0.0
23/03:25am 14.6 15.7 13.6 94 0.6 CALM 0 0 0 0 1013.6 1011.5 0.0
23/03:18am 15.0 16.3 14.2 95 0.5 CALM 0 0 0 0 1013.6 1011.5 0.0
23/03:00am 15.0 16.0 14.2 95 0.5 ENE 2 6 1 3 1013.8 1011.8 0.0
23/02:30am 15.0 15.0 14.2 95 0.5 NE 7 9 4 5 1013.9 1011.9 0.0
23/02:17am 15.2 15.4 14.1 93 0.6 E 6 6 3 3 1014.2 1012.2 0.0
23/02:00am 15.4 16.7 14.1 92 0.8 CALM 0 6 0 3 1014.2 1012.2 0.0
23/01:52am 15.7 17.2 14.6 93 0.6 CALM 0 0 0 0 1014.4 1012.4 0.0
23/01:34am 15.6 16.9 14.1 91 0.9 CALM 0 0 0 0 1014.5 1012.5 0.0
23/01:30am 15.9 17.3 14.4 91 0.9 CALM 0 0 0 0 1014.4 1012.4 0.0
23/01:00am 16.6 17.0 14.8 89 1.1 ENE 6 7 3 4 1014.5 1012.5 0.0
23/12:30am 17.7 18.2 15.1 85 1.6 N 6 7 3 4 1015.0 1012.9 0.0
23/12:00am 17.6 17.6 15.2 86 1.4 NNE 9 9 5 5 1015.3 1013.3 0.0
 
Date/Time
EDT
Temp
°C
App
Temp
°C
Dew
Point
Rel
Hum
%
Delta-T
°C
Wind Press
QNH
hPa
Press
MSL
hPa
Rain
since 9 am
mm
Dir
 
Spd
km/h
Gust
km/h
Spd
kts
Gust
kts
22/11:30pm 16.9 16.7 15.6 92 0.8 NE 11 13 6 7 1015.3 1013.3 0.0
22/11:00pm 16.8 17.4 15.2 90 1.0 NE 6 7 3 4 1015.4 1013.4 0.0
22/10:30pm 18.0 18.7 15.6 86 1.5 E 6 7 3 4 1015.5 1013.5 0.0
22/10:00pm 18.5 18.9 15.2 81 2.0 NE 7 9 4 5 1015.5 1013.5 0.0
22/09:30pm 20.1 20.3 15.7 76 2.7 NNE 9 11 5 6 1015.5 1013.5 0.0
22/09:00pm 20.3 20.0 15.5 74 2.9 NE 11 13 6 7 1015.4 1013.4 0.0
22/08:30pm 21.1 20.5 15.6 71 3.4 NNE 13 17 7 9 1014.9 1012.8 0.0
22/08:00pm 21.7 20.2 15.3 67 3.9 NNE 17 19 9 10 1014.3 1012.3 0.0
22/07:30pm 22.9 21.3 15.0 61 4.8 NNE 17 20 9 11 1013.9 1011.9 0.0
22/07:00pm 23.7 22.8 14.9 57 5.4 NE 13 17 7 9 1013.6 1011.5 0.0
22/06:30pm 24.2 22.6 14.9 56 5.7 NNE 17 20 9 11 1013.5 1011.4 0.0
22/06:00pm 25.0 22.4 13.9 50 6.7 NE 20 26 11 14 1013.2 1011.1 0.0
22/05:30pm 25.6 22.6 13.8 48 7.2 NE 22 30 12 16 1013.0 1011.0 0.0
22/05:00pm 26.3 23.9 13.8 46 7.6 NNE 19 30 10 16 1012.8 1010.8 0.0
22/04:30pm 26.7 22.7 14.1 46 7.7 NNE 28 35 15 19 1012.4 1010.3 0.0
22/04:00pm 27.1 23.1 14.1 44 8.0 NE 28 35 15 19 1012.4 1010.3 0.0
22/03:30pm 27.7 24.7 14.7 45 8.1 NE 24 32 13 17 1012.7 1010.7 0.0
22/03:00pm 27.4 25.4 15.4 48 7.5 NE 20 28 11 15 1013.3 1011.2 0.0
22/02:30pm 27.0 23.9 14.4 46 7.8 NNE 24 32 13 17 1013.5 1011.4 0.0
22/02:00pm 25.8 22.0 13.6 47 7.4 NE 26 33 14 18 1014.0 1012.0 0.0
22/01:30pm 25.9 22.3 13.1 45 7.7 NNE 24 28 13 15 1014.6 1012.6 0.0
22/01:00pm 24.9 22.3 13.8 50 6.7 ENE 20 26 11 14 1014.9 1012.8 0.0
22/12:30pm 24.5 22.3 12.1 46 7.3 NNE 15 20 8 11 1015.4 1013.4 0.0
22/12:00pm 23.9 21.7 13.2 51 6.4 NE 17 24 9 13 1015.8 1013.8 0.0
22/11:30am 22.8 20.2 12.1 51 6.2 N 17 24 9 13 1015.9 1013.9 0.0
22/11:00am 21.7 19.7 12.8 57 5.2 NNE 15 22 8 12 1016.4 1014.3 0.0
22/10:30am 20.2 17.9 11.7 58 4.9 NNE 15 20 8 11 1016.6 1014.6 0.0
22/10:00am 19.5 17.7 13.2 67 3.7 NNE 15 26 8 14 1017.1 1015.1 0.0
22/09:30am 17.9 13.7 12.4 70 3.2 N 26 37 14 20 1016.6 1014.6 0.0
22/09:05am 17.9 14.7 13.2 74 2.7 NNE 22 28 12 15 1017.0 1015.0 0.0
22/09:00am 17.5 14.2 12.8 74 2.7 NNE 22 30 12 16 1017.1 1015.1 0.0
22/08:30am 16.2 15.4 12.9 81 1.9 N 9 15 5 8 1017.7 1015.8 0.0
22/08:00am 15.8 14.5 12.4 80 1.9 ENE 11 15 6 8 1017.3 1015.3 0.0
22/07:30am 14.9 13.2 12.6 86 1.3 ENE 13 17 7 9 1016.9 1014.9 0.0
22/07:00am 14.2 14.0 12.9 92 0.7 ENE 6 9 3 5 1016.9 1014.9 0.0
22/06:37am 13.8 12.9 12.7 93 0.6 E 9 11 5 6 1016.7 1014.7 0.0
22/06:30am 13.7 12.4 12.6 93 0.6 E 11 13 6 7 1016.6 1014.6 0.0
22/06:00am 13.7 12.9 12.8 94 0.5 E 9 13 5 7 1016.4 1014.3 0.0
22/05:30am 13.9 13.4 12.8 93 0.6 E 7 11 4 6 1015.9 1013.9 0.0
22/05:00am 14.6 13.9 13.1 91 0.9 ENE 9 13 5 7 1015.9 1013.9 0.0
22/04:54am 14.9 14.3 13.6 92 0.8 ENE 9 13 5 7 1015.8 1013.8 0.0
22/04:30am 14.9 14.9 13.6 92 0.8 NE 6 9 3 5 1015.8 1013.8 0.0
22/04:00am 14.8 14.3 13.7 93 0.6 ENE 9 11 5 6 1015.5 1013.5 0.0
22/03:30am 14.8 13.9 13.7 93 0.6 ENE 11 13 6 7 1015.3 1013.3 0.0
22/03:02am 14.7 14.5 13.7 94 0.6 E 7 11 4 6 1015.5 1013.5 0.0
22/03:00am 14.7 14.2 13.7 94 0.6 E 9 11 5 6 1015.6 1013.6 0.0
22/02:30am 14.7 14.2 13.7 94 0.6 ESE 9 11 5 6 1015.6 1013.6 0.0
22/02:19am 14.8 13.9 13.7 93 0.6 ESE 11 13 6 7 1015.6 1013.6 0.0
22/02:00am 14.9 14.0 13.8 93 0.6 ESE 11 13 6 7 1015.8 1013.8 0.0
22/01:30am 14.9 14.4 13.8 93 0.6 SE 9 11 5 6 1016.3 1014.2 0.0
22/01:01am 14.8 14.3 13.8 94 0.6 SE 9 11 5 6 1016.4 1014.3 0.0
22/01:00am 14.8 14.3 13.8 94 0.6 SE 9 11 5 6 1016.4 1014.3 0.0
22/12:37am 14.8 13.9 13.8 94 0.6 SE 11 15 6 8 1016.6 1014.6 0.0
22/12:30am 14.8 13.9 13.8 94 0.6 SE 11 15 6 8 1016.7 1014.7 0.0
22/12:21am 14.8 13.9 13.8 94 0.6 SE 11 15 6 8 1016.8 1014.8 0.0
22/12:00am 14.8 13.5 13.8 94 0.6 SE 13 17 7 9 1016.7 1014.7 0.0
 
Date/Time
EDT
Temp
°C
App
Temp
°C
Dew
Point
Rel
Hum
%
Delta-T
°C
Wind Press
QNH
hPa
Press
MSL
hPa
Rain
since 9 am
mm
Dir
 
Spd
km/h
Gust
km/h
Spd
kts
Gust
kts
21/11:55pm 14.9 13.7 13.9 94 0.6 SE 13 17 7 9 1016.7 1014.7 0.0
21/11:45pm 14.7 13.0 13.7 94 0.6 SE 15 20 8 11 1016.8 1014.8 0.0
21/11:30pm 14.8 13.6 14.0 95 0.5 SE 13 17 7 9 1016.7 1014.7 0.0
21/11:00pm 14.8 12.5 14.2 96 0.3 ESE 19 24 10 13 1016.6 1014.6 0.0
21/10:30pm 15.0 13.1 14.2 95 0.5 SE 17 24 9 13 1016.3 1014.2 0.0
21/10:00pm 15.3 12.6 14.5 95 0.5 SE 22 30 12 16 1016.0 1014.0 0.0
21/09:30pm 15.7 13.0 14.7 94 0.6 SE 22 32 12 17 1015.5 1013.5 0.0
21/09:15pm 15.8 13.5 14.7 93 0.7 SE 20 28 11 15 1015.3 1013.3 0.0
21/09:00pm 16.0 13.7 14.7 92 0.8 SE 20 32 11 17 1015.2 1013.2 0.0
21/08:30pm 16.2 13.2 14.9 92 0.8 SSE 24 32 13 17 1014.5 1012.5 0.0

Other Formats:

Comma delimited format used in spreadsheet applications
http://www.bom.gov.au/fwo/IDN60801/IDN60801.94746.axf

JavaScript Object Notation format (JSON) in row-major order
http://www.bom.gov.au/fwo/IDN60801/IDN60801.94746.json